createdAt,value
2019-02-20T00:00:32.870Z,36.60
2019-02-20T00:01:32.851Z,36.70
2019-02-20T00:02:32.842Z,37.90
2019-02-20T00:03:32.824Z,37.70
2019-02-20T00:04:32.822Z,36.70
2019-02-20T00:05:32.809Z,38.30
2019-02-20T00:06:32.809Z,37.60
2019-02-20T00:07:32.780Z,37.40
2019-02-20T00:08:32.769Z,38.50
2019-02-20T00:09:32.792Z,39.70
2019-02-20T00:10:32.753Z,38.20
2019-02-20T00:11:32.751Z,36.60
2019-02-20T00:12:32.731Z,37.50
2019-02-20T00:13:32.727Z,36.10
2019-02-20T00:14:32.701Z,37.50
2019-02-20T00:15:32.691Z,37.50
2019-02-20T00:16:32.695Z,35.90
2019-02-20T00:17:32.671Z,35.40
2019-02-20T00:18:32.659Z,37.50
2019-02-20T00:19:32.647Z,36.60
2019-02-20T00:20:32.634Z,35.80
2019-02-20T00:21:32.638Z,35.80
2019-02-20T00:22:39.981Z,36.00
2019-02-20T00:23:33.620Z,36.20
2019-02-20T00:24:32.589Z,35.70
2019-02-20T00:25:32.577Z,35.20
2019-02-20T00:26:32.582Z,35.50
2019-02-20T00:27:32.576Z,35.80
2019-02-20T00:28:32.544Z,34.90
2019-02-20T00:29:32.534Z,34.30
2019-02-20T00:30:32.529Z,34.70
2019-02-20T00:31:32.528Z,34.90
2019-02-20T00:32:32.499Z,34.50
2019-02-20T00:33:32.489Z,35.20
2019-02-20T00:34:32.499Z,35.30
2019-02-20T00:35:32.467Z,35.50
2019-02-20T00:36:32.466Z,36.40
2019-02-20T00:37:32.446Z,38.20
2019-02-20T00:38:32.431Z,38.50
2019-02-20T00:39:32.419Z,38.40
2019-02-20T00:40:32.412Z,39.60
2019-02-20T00:41:32.407Z,39.20
2019-02-20T00:42:32.402Z,41.90
2019-02-20T00:43:32.376Z,43.00
2019-02-20T00:44:32.365Z,42.90
2019-02-20T00:45:32.375Z,43.50
2019-02-20T00:46:32.357Z,45.00
2019-02-20T00:47:32.341Z,45.30
2019-02-20T00:48:32.325Z,46.30
2019-02-20T00:49:32.308Z,48.00
2019-02-20T00:50:32.307Z,47.80
2019-02-20T00:51:32.307Z,48.60
2019-02-20T00:52:32.277Z,48.90
2019-02-20T00:53:32.267Z,48.30
2019-02-20T00:54:32.254Z,49.50
2019-02-20T00:55:32.248Z,47.60
2019-02-20T00:56:32.239Z,47.80
2019-02-20T00:57:32.251Z,46.80
2019-02-20T00:58:32.210Z,45.90
2019-02-20T00:59:32.199Z,45.10
2019-02-20T01:00:32.186Z,45.60
2019-02-20T01:01:32.174Z,46.50
2019-02-20T01:02:32.172Z,45.90
2019-02-20T01:03:32.151Z,44.90
2019-02-20T01:04:32.139Z,46.40
2019-02-20T01:05:32.129Z,46.90
2019-02-20T01:06:32.132Z,46.70
2019-02-20T01:07:32.133Z,47.20
2019-02-20T01:08:32.099Z,47.60
2019-02-20T01:09:32.086Z,47.10
2019-02-20T01:10:32.091Z,48.90
2019-02-20T01:11:32.065Z,49.40
2019-02-20T01:12:32.061Z,49.30
2019-02-20T01:13:32.047Z,49.20
2019-02-20T01:14:32.028Z,48.90
2019-02-20T01:15:32.024Z,47.50
2019-02-20T01:16:32.005Z,47.90
2019-02-20T01:17:32.008Z,48.70
2019-02-20T01:18:31.986Z,47.20
2019-02-20T01:19:31.987Z,46.60
2019-02-20T01:20:31.978Z,45.70
2019-02-20T01:21:31.966Z,47.30
2019-02-20T01:22:31.953Z,44.90
2019-02-20T01:23:31.935Z,45.10
2019-02-20T01:24:31.925Z,46.00
2019-02-20T01:25:31.932Z,44.40
2019-02-20T01:26:31.898Z,44.50
2019-02-20T01:27:31.900Z,46.00
2019-02-20T01:28:31.873Z,44.20
2019-02-20T01:29:31.870Z,44.00
2019-02-20T01:30:31.862Z,43.20
2019-02-20T01:31:31.839Z,43.80
2019-02-20T01:32:31.830Z,43.50
2019-02-20T01:33:31.834Z,42.80
2019-02-20T01:34:31.818Z,42.50
2019-02-20T01:35:31.792Z,41.60
2019-02-20T01:36:31.784Z,42.50
2019-02-20T01:37:31.770Z,42.10
2019-02-20T01:38:31.769Z,42.10
2019-02-20T01:39:31.750Z,41.40
2019-02-20T01:40:31.743Z,41.10
2019-02-20T01:41:31.728Z,41.00
2019-02-20T01:42:31.727Z,41.50
2019-02-20T01:43:31.714Z,39.90
2019-02-20T01:44:31.693Z,41.50
2019-02-20T01:45:31.680Z,40.40
2019-02-20T01:46:31.684Z,40.00
2019-02-20T01:47:31.662Z,40.40
2019-02-20T01:48:31.663Z,38.60
2019-02-20T01:49:31.635Z,39.20
2019-02-20T01:50:31.626Z,38.60
2019-02-20T01:51:31.616Z,38.10
2019-02-20T01:52:31.616Z,39.30
2019-02-20T01:53:31.611Z,36.70
2019-02-20T01:54:31.580Z,36.80
2019-02-20T01:55:31.573Z,37.10
2019-02-20T01:56:31.556Z,36.80
2019-02-20T01:57:31.547Z,36.60
2019-02-20T01:58:31.545Z,36.00
2019-02-20T01:59:31.537Z,36.60
2019-02-20T02:00:31.516Z,36.60
2019-02-20T02:01:31.504Z,35.30
2019-02-20T02:02:31.493Z,35.20
2019-02-20T02:03:31.494Z,36.00
2019-02-20T02:04:31.468Z,35.50
2019-02-20T02:05:31.464Z,34.60
2019-02-20T02:06:31.448Z,35.20
2019-02-20T03:56:59.810Z,39.50
2019-02-20T03:57:19.045Z,40.00
2019-02-20T03:58:19.033Z,39.70
2019-02-20T03:59:19.017Z,40.00
2019-02-20T04:00:19.024Z,41.40
2019-02-20T04:01:19.014Z,41.10
2019-02-20T04:02:18.983Z,41.40
2019-02-20T04:03:18.975Z,40.90
2019-02-20T04:04:18.965Z,40.50
2019-02-20T04:05:18.954Z,40.20
2019-02-20T04:06:18.965Z,40.70
2019-02-20T04:07:18.945Z,39.50
2019-02-20T04:08:18.934Z,40.30
2019-02-20T04:09:18.913Z,38.10
2019-02-20T04:10:18.898Z,39.10
2019-02-20T04:11:18.914Z,39.70
2019-02-20T04:12:18.884Z,41.00
2019-02-20T04:13:18.867Z,40.70
2019-02-20T04:14:18.868Z,39.70
2019-02-20T04:15:18.841Z,40.40
2019-02-20T04:16:18.831Z,39.80
2019-02-20T04:17:18.845Z,40.80
2019-02-20T04:18:18.819Z,41.20
2019-02-20T04:19:18.802Z,41.20
2019-02-20T04:20:18.798Z,40.50
2019-02-20T04:21:18.779Z,41.10
2019-02-20T04:22:18.776Z,40.60
2019-02-20T04:23:18.761Z,40.70
2019-02-20T04:24:18.761Z,41.10
2019-02-20T04:25:18.732Z,41.20
2019-02-20T04:26:18.719Z,40.30
2019-02-20T04:27:18.721Z,40.00
2019-02-20T04:28:18.712Z,40.30
2019-02-20T04:29:18.691Z,40.00
2019-02-20T04:30:18.678Z,41.90
2019-02-20T04:31:18.664Z,40.70
2019-02-20T04:32:18.699Z,41.50
2019-02-20T04:33:18.644Z,41.90
2019-02-20T04:34:18.645Z,41.40
2019-02-20T04:35:18.630Z,41.60
2019-02-20T04:36:18.611Z,41.60
2019-02-20T04:37:18.613Z,40.20
2019-02-20T04:38:18.589Z,39.90
2019-02-20T04:39:18.586Z,42.30
2019-02-20T04:40:18.572Z,42.30
2019-02-20T04:41:18.563Z,41.30
2019-02-20T04:42:18.571Z,40.90
2019-02-20T04:43:18.543Z,40.60
2019-02-20T04:44:18.530Z,40.60
2019-02-20T04:45:18.509Z,40.80
2019-02-20T04:46:18.514Z,40.50
2019-02-20T04:47:18.500Z,41.50
2019-02-20T04:48:18.496Z,41.60
2019-02-20T04:49:18.467Z,40.60
2019-02-20T04:50:18.459Z,41.60
2019-02-20T04:51:18.489Z,41.00
2019-02-20T04:52:18.450Z,41.30
2019-02-20T04:53:18.468Z,41.50
2019-02-20T04:54:18.446Z,41.90
2019-02-20T04:55:18.425Z,42.40
2019-02-20T04:56:18.396Z,42.60
2019-02-20T04:57:18.408Z,41.70
2019-02-20T04:58:18.398Z,42.90
2019-02-20T04:59:18.367Z,43.00
2019-02-20T05:00:18.346Z,43.00
2019-02-20T05:01:18.334Z,43.80
2019-02-20T05:02:18.323Z,42.50
2019-02-20T05:03:18.335Z,43.80
2019-02-20T05:04:18.384Z,42.90
2019-02-20T05:05:18.299Z,45.20
2019-02-20T05:06:18.276Z,43.80
2019-02-20T05:07:18.272Z,44.40
2019-02-20T05:08:18.275Z,44.50
2019-02-20T05:09:18.257Z,44.90
2019-02-20T05:10:18.256Z,42.90
2019-02-20T05:11:18.241Z,42.80
2019-02-20T05:12:18.212Z,43.00
2019-02-20T05:13:18.230Z,42.90
2019-02-20T05:14:18.205Z,41.60
2019-02-20T05:15:18.181Z,41.50
2019-02-20T05:16:18.166Z,41.40
2019-02-20T05:17:18.156Z,42.90
2019-02-20T05:18:18.171Z,41.90
2019-02-20T05:19:18.164Z,42.50
2019-02-20T05:20:18.134Z,41.90
2019-02-20T05:21:18.123Z,42.30
2019-02-20T05:22:18.101Z,41.30
2019-02-20T05:23:18.104Z,42.00
2019-02-20T05:24:24.491Z,42.50
2019-02-20T05:25:19.094Z,42.10
2019-02-20T05:26:18.058Z,41.80
2019-02-20T05:27:18.055Z,40.50
2019-02-20T05:28:18.080Z,40.90
2019-02-20T05:29:18.022Z,41.30
2019-02-20T05:30:18.019Z,42.00
2019-02-20T05:31:18.003Z,41.40
2019-02-20T05:32:17.992Z,42.50
2019-02-20T05:33:18.014Z,41.00
2019-02-20T05:34:17.973Z,41.90
2019-02-20T05:35:17.962Z,41.20
2019-02-20T05:36:17.943Z,42.40
2019-02-20T05:37:17.940Z,41.40
2019-02-20T05:38:17.932Z,42.40
2019-02-20T05:39:17.917Z,41.50
2019-02-20T05:40:17.903Z,41.00
2019-02-20T05:41:17.901Z,40.50
2019-02-20T05:42:17.885Z,42.50
2019-02-20T05:43:17.905Z,41.50
2019-02-20T05:44:17.878Z,41.80
2019-02-20T05:45:17.849Z,41.10
2019-02-20T05:46:17.834Z,40.90
2019-02-20T05:47:17.823Z,40.20
2019-02-20T05:48:17.814Z,39.20
2019-02-20T05:49:17.825Z,39.40
2019-02-20T05:50:17.804Z,39.00
2019-02-20T05:51:17.778Z,38.10
2019-02-20T05:52:17.780Z,38.60
2019-02-20T05:53:17.755Z,39.20
2019-02-20T05:54:17.762Z,39.20
2019-02-20T05:55:17.748Z,38.70
2019-02-20T05:56:17.753Z,39.80
2019-02-20T05:57:17.719Z,38.80
2019-02-20T05:58:17.706Z,38.90
2019-02-20T05:59:17.705Z,38.00
2019-02-20T06:00:17.678Z,38.40
2019-02-20T06:01:17.674Z,37.20
2019-02-20T06:02:17.671Z,37.20
2019-02-20T06:03:17.647Z,37.40
2019-02-20T06:04:17.658Z,36.80
2019-02-20T06:05:17.640Z,37.20
2019-02-20T06:06:17.631Z,36.40
2019-02-20T06:07:17.613Z,36.10
2019-02-20T06:08:17.591Z,36.80
2019-02-20T06:09:17.631Z,36.90
2019-02-20T06:10:17.571Z,36.70
2019-02-20T06:11:17.557Z,37.60
2019-02-20T06:12:17.568Z,36.40
2019-02-20T06:13:17.561Z,36.90
2019-02-20T06:14:17.543Z,36.20
2019-02-20T06:15:17.522Z,36.80
2019-02-20T06:16:17.516Z,36.90
2019-02-20T06:17:17.506Z,35.50
2019-02-20T06:18:17.481Z,36.30
2019-02-20T06:19:17.479Z,35.40
2019-02-20T06:20:17.465Z,36.30
2019-02-20T06:21:17.450Z,35.50
2019-02-20T06:22:17.447Z,35.80
2019-02-20T06:23:17.439Z,36.10
2019-02-20T06:24:17.446Z,35.30
2019-02-20T06:25:17.432Z,36.40
2019-02-20T06:26:17.394Z,34.10
2019-02-20T06:27:17.382Z,35.30
2019-02-20T06:28:17.389Z,35.80
2019-02-20T06:29:17.378Z,35.10
2019-02-20T06:30:17.430Z,34.40
2019-02-20T06:31:17.339Z,34.50
2019-02-20T06:32:17.354Z,34.00
2019-02-20T06:33:17.314Z,34.10
2019-02-20T06:34:17.330Z,33.10
2019-02-20T06:35:17.291Z,34.20
2019-02-20T06:36:17.285Z,34.00
2019-02-20T06:37:17.272Z,34.10
2019-02-20T06:38:17.267Z,33.60
2019-02-20T06:39:17.289Z,31.90
2019-02-20T06:40:17.238Z,32.60
2019-02-20T06:41:17.234Z,33.10
2019-02-20T06:42:17.216Z,33.20
2019-02-20T06:43:17.228Z,34.10
2019-02-20T06:44:17.219Z,32.90
2019-02-20T06:45:17.187Z,35.00
2019-02-20T06:46:17.172Z,33.40
2019-02-20T06:47:17.166Z,33.40
2019-02-20T06:48:17.155Z,32.90
2019-02-20T06:49:17.156Z,32.60
2019-02-20T06:50:17.153Z,32.00
2019-02-20T06:51:17.117Z,32.30
2019-02-20T06:52:17.123Z,33.00
2019-02-20T06:53:17.097Z,32.80
2019-02-20T06:54:17.085Z,33.00
2019-02-20T06:55:17.100Z,34.20
2019-02-20T06:56:17.059Z,33.00
2019-02-20T06:57:17.054Z,34.00
2019-02-20T06:58:17.050Z,35.70
2019-02-20T06:59:17.027Z,35.20
2019-02-20T07:00:17.025Z,35.50
2019-02-20T07:01:17.009Z,35.90
2019-02-20T07:02:17.040Z,35.60
2019-02-20T07:03:16.982Z,33.80
2019-02-20T07:04:16.985Z,34.90
2019-02-20T07:05:16.990Z,34.40
2019-02-20T07:06:16.970Z,34.20
2019-02-20T07:07:16.942Z,34.00
2019-02-20T07:08:16.960Z,36.30
2019-02-20T07:09:16.918Z,35.10
2019-02-20T07:10:16.917Z,35.20
2019-02-20T07:11:16.893Z,33.30
2019-02-20T07:12:16.902Z,35.10
2019-02-20T07:13:16.892Z,36.00
2019-02-20T07:14:16.863Z,35.70
2019-02-20T07:15:16.902Z,34.40
2019-02-20T07:16:16.894Z,34.50
2019-02-20T07:17:16.830Z,34.50
2019-02-20T07:18:16.818Z,33.80
2019-02-20T07:19:16.805Z,34.40
2019-02-20T07:20:16.808Z,34.10
2019-02-20T07:21:16.827Z,35.20
2019-02-20T07:22:16.798Z,34.60
2019-02-20T07:23:16.763Z,33.40
2019-02-20T07:24:16.755Z,33.30
2019-02-20T07:25:16.753Z,33.60
2019-02-20T07:26:16.754Z,31.90
2019-02-20T07:27:16.715Z,32.10
2019-02-20T07:28:16.747Z,32.50
2019-02-20T07:29:16.702Z,32.10
2019-02-20T07:30:16.684Z,32.00
2019-02-20T07:31:16.718Z,30.90
2019-02-20T07:32:16.661Z,30.60
2019-02-20T07:33:16.656Z,31.30
2019-02-20T07:34:16.658Z,31.10
2019-02-20T07:35:16.638Z,30.30
2019-02-20T07:36:16.646Z,31.00
2019-02-20T07:37:16.608Z,30.90
2019-02-20T07:38:16.599Z,31.60
2019-02-20T07:39:16.599Z,30.30
2019-02-20T07:40:16.587Z,31.00
2019-02-20T07:41:16.597Z,30.00
2019-02-20T07:42:16.569Z,31.10
2019-02-20T07:43:16.600Z,30.50
2019-02-20T07:44:16.808Z,31.00
2019-02-20T07:45:16.519Z,30.80
2019-02-20T07:46:16.520Z,29.80
2019-02-20T07:47:16.497Z,30.20
2019-02-20T07:48:16.494Z,29.70
2019-02-20T07:49:16.513Z,29.20
2019-02-20T07:50:16.524Z,30.20
2019-02-20T07:51:16.468Z,29.70
2019-02-20T07:52:16.441Z,28.60
2019-02-20T07:53:16.433Z,29.30
2019-02-20T07:54:16.441Z,30.10
2019-02-20T07:55:16.407Z,30.20
2019-02-20T07:56:16.426Z,30.70
2019-02-20T07:57:16.388Z,29.20
2019-02-20T07:58:16.373Z,29.40
2019-02-20T07:59:16.373Z,29.30
2019-02-20T08:00:16.388Z,29.20
2019-02-20T08:01:16.384Z,29.30
2019-02-20T08:02:16.343Z,29.20
2019-02-20T08:03:16.323Z,28.60
2019-02-20T08:04:16.312Z,27.60
2019-02-20T08:05:16.305Z,27.40
2019-02-20T08:06:16.299Z,27.40
2019-02-20T08:07:16.305Z,28.10
2019-02-20T08:08:16.275Z,27.70
2019-02-20T08:09:16.255Z,28.80
2019-02-20T08:10:16.247Z,26.90
2019-02-20T08:11:16.250Z,26.90
2019-02-20T08:12:16.260Z,27.50
2019-02-20T08:13:16.217Z,27.10
2019-02-20T08:14:16.198Z,25.80
2019-02-20T08:15:16.199Z,26.60
2019-02-20T08:16:16.184Z,26.00
2019-02-20T08:17:16.222Z,26.80
2019-02-20T08:18:16.218Z,25.50
2019-02-20T08:19:16.145Z,26.10
2019-02-20T08:20:16.165Z,26.70
2019-02-20T08:21:16.122Z,26.60
2019-02-20T08:22:16.122Z,26.80
2019-02-20T08:23:16.112Z,25.80
2019-02-20T08:24:16.158Z,26.20
2019-02-20T08:25:22.599Z,26.50
2019-02-20T08:26:17.084Z,26.90
2019-02-20T08:27:16.071Z,25.80
2019-02-20T08:28:16.045Z,25.80
2019-02-20T08:29:16.042Z,25.40
2019-02-20T08:30:16.025Z,25.60
2019-02-20T08:31:16.011Z,25.80
2019-02-20T08:32:16.019Z,26.50
2019-02-20T08:33:16.025Z,27.70
2019-02-20T08:34:15.977Z,26.70
2019-02-20T08:35:15.974Z,26.80
2019-02-20T08:36:15.956Z,26.00
2019-02-20T08:37:15.977Z,26.70
2019-02-20T08:38:15.939Z,26.40
2019-02-20T08:39:15.927Z,26.10
2019-02-20T08:40:15.914Z,25.90
2019-02-20T08:41:15.930Z,25.10
2019-02-20T08:42:15.902Z,26.10
2019-02-20T08:43:15.895Z,24.60
2019-02-20T08:44:15.870Z,25.10
2019-02-20T08:45:15.858Z,24.40
2019-02-20T08:46:15.849Z,24.30
2019-02-20T08:47:15.864Z,23.90
2019-02-20T08:48:15.824Z,24.90
2019-02-20T08:49:15.818Z,25.40
2019-02-20T08:50:16.891Z,25.40
2019-02-20T08:51:15.797Z,24.90
2019-02-20T08:52:15.798Z,25.70
2019-02-20T08:53:15.768Z,25.70
2019-02-20T08:54:15.763Z,25.30
2019-02-20T08:55:15.753Z,26.00
2019-02-20T08:56:15.774Z,25.00
2019-02-20T08:57:15.730Z,26.90
2019-02-20T08:58:15.740Z,26.00
2019-02-20T08:59:15.704Z,25.10
2019-02-20T09:00:15.701Z,24.60
2019-02-20T09:01:15.683Z,26.30
2019-02-20T09:02:15.671Z,25.10
2019-02-20T09:03:15.691Z,24.60
2019-02-20T09:04:15.649Z,24.10
2019-02-20T09:05:15.644Z,24.00
2019-02-20T09:06:15.630Z,24.10
2019-02-20T09:07:15.627Z,24.40
2019-02-20T09:08:15.657Z,24.00
2019-02-20T09:09:15.597Z,24.00
2019-02-20T09:10:17.390Z,23.80
2019-02-20T09:11:15.573Z,24.50
2019-02-20T09:12:15.560Z,24.10
2019-02-20T09:13:15.582Z,24.40
2019-02-20T09:14:15.540Z,24.20
2019-02-20T09:15:15.526Z,24.60
2019-02-20T09:16:15.517Z,24.10
2019-02-20T09:17:15.502Z,24.80
2019-02-20T09:18:15.506Z,25.70
2019-02-20T09:19:15.493Z,23.80
2019-02-20T09:20:15.476Z,24.30
2019-02-20T09:21:15.490Z,24.30
2019-02-20T09:22:15.448Z,24.20
2019-02-20T09:23:15.456Z,23.30
2019-02-20T09:24:15.430Z,23.70
2019-02-20T09:25:19.877Z,23.60
2019-02-20T09:26:15.415Z,23.30
2019-02-20T09:27:15.418Z,23.20
2019-02-20T09:28:15.408Z,24.00
2019-02-20T09:29:15.394Z,23.60
2019-02-20T09:30:15.363Z,24.80
2019-02-20T09:31:15.353Z,24.30
2019-02-20T09:32:15.354Z,24.30
2019-02-20T09:33:15.339Z,24.70
2019-02-20T09:34:15.332Z,23.90
2019-02-20T09:35:15.307Z,24.00
2019-02-20T09:36:15.291Z,23.80
2019-02-20T09:37:15.286Z,24.20
2019-02-20T09:38:15.283Z,24.30
2019-02-20T09:39:15.259Z,23.70
2019-02-20T09:40:15.250Z,23.70
2019-02-20T09:41:15.236Z,23.10
2019-02-20T09:42:15.229Z,24.40
2019-02-20T09:43:15.215Z,24.10
2019-02-20T09:44:15.216Z,23.50
2019-02-20T09:45:15.197Z,24.40
2019-02-20T09:46:15.182Z,23.60
2019-02-20T09:47:15.172Z,23.50
2019-02-20T09:48:15.161Z,23.50
2019-02-20T09:49:15.169Z,22.40
2019-02-20T09:50:15.148Z,23.20
2019-02-20T09:51:15.123Z,22.40
2019-02-20T09:52:15.113Z,21.60
2019-02-20T09:53:15.130Z,21.70
2019-02-20T09:54:15.135Z,21.50
2019-02-20T09:55:15.082Z,21.20
2019-02-20T09:56:16.218Z,20.70
2019-02-20T09:57:15.063Z,20.10
2019-02-20T09:58:15.050Z,20.00
2019-02-20T09:59:15.058Z,19.80
2019-02-20T10:00:15.031Z,20.70
2019-02-20T10:01:15.027Z,20.20
2019-02-20T10:02:15.001Z,20.30
2019-02-20T10:03:14.995Z,20.90
2019-02-20T10:04:14.990Z,20.80
2019-02-20T10:05:14.968Z,20.40
2019-02-20T10:06:14.957Z,20.20
2019-02-20T10:07:14.999Z,20.60
2019-02-20T10:08:14.941Z,20.20
2019-02-20T10:09:16.274Z,19.00
2019-02-20T10:10:14.911Z,19.30
2019-02-20T10:11:14.908Z,18.20
2019-02-20T10:12:14.903Z,18.60
2019-02-20T10:13:14.892Z,19.10
2019-02-20T10:14:14.895Z,18.30
2019-02-20T10:15:14.860Z,18.80
2019-02-20T10:16:14.871Z,18.00
2019-02-20T10:17:14.850Z,17.60
2019-02-20T10:18:14.830Z,17.30
2019-02-20T10:19:14.815Z,16.50
2019-02-20T10:20:14.836Z,17.30
2019-02-20T10:21:14.810Z,17.70
2019-02-20T10:22:14.779Z,17.30
2019-02-20T10:23:14.770Z,17.00
2019-02-20T10:24:14.760Z,17.00
2019-02-20T10:25:14.759Z,16.70
2019-02-20T10:26:14.734Z,16.60
2019-02-20T10:27:14.725Z,17.00
2019-02-20T10:28:14.717Z,17.30
2019-02-20T10:29:14.724Z,17.20
2019-02-20T10:30:14.726Z,16.90
2019-02-20T10:31:14.678Z,16.70
2019-02-20T10:32:14.670Z,16.50
2019-02-20T10:33:14.654Z,17.00
2019-02-20T10:34:14.653Z,17.00
2019-02-20T10:35:14.647Z,16.90
2019-02-20T10:36:14.621Z,16.60
2019-02-20T10:37:14.610Z,17.10
2019-02-20T10:38:14.603Z,17.00
2019-02-20T10:39:14.590Z,16.50
2019-02-20T10:40:14.593Z,17.30
2019-02-20T10:41:14.567Z,17.70
2019-02-20T10:42:14.552Z,17.50
2019-02-20T10:43:14.544Z,17.90
2019-02-20T10:44:14.534Z,17.90
2019-02-20T10:45:14.532Z,18.60
2019-02-20T10:46:14.507Z,19.20
2019-02-20T10:47:14.501Z,19.10
2019-02-20T10:48:14.485Z,17.70
2019-02-20T10:49:14.522Z,18.20
2019-02-20T10:50:14.489Z,18.20
2019-02-20T10:51:14.454Z,17.20
2019-02-20T10:52:14.446Z,17.00
2019-02-20T10:53:14.434Z,18.00
2019-02-20T10:54:14.418Z,17.40
2019-02-20T10:55:14.436Z,18.20
2019-02-20T10:56:14.412Z,17.70
2019-02-20T10:57:14.384Z,17.60
2019-02-20T10:58:14.382Z,18.30
2019-02-20T10:59:14.366Z,18.60
2019-02-20T11:00:23.368Z,18.10
2019-02-20T11:01:15.340Z,18.10
2019-02-20T11:02:14.328Z,17.40
2019-02-20T11:03:14.322Z,17.20
2019-02-20T11:04:14.309Z,17.50
2019-02-20T11:05:14.304Z,17.90
2019-02-20T11:06:14.299Z,17.90
2019-02-20T11:07:14.274Z,17.70
2019-02-20T11:08:14.265Z,17.80
2019-02-20T11:09:14.255Z,17.60
2019-02-20T11:10:14.238Z,17.10
2019-02-20T11:11:14.251Z,17.30
2019-02-20T11:12:14.217Z,18.10
2019-02-20T11:13:14.205Z,17.70
2019-02-20T11:14:14.194Z,17.90
2019-02-20T11:15:14.189Z,18.20
2019-02-20T11:16:14.225Z,17.80
2019-02-20T11:17:14.162Z,17.70
2019-02-20T11:18:14.157Z,18.70
2019-02-20T11:19:15.644Z,18.00
2019-02-20T11:20:14.127Z,18.90
2019-02-20T11:21:14.136Z,18.00
2019-02-20T11:22:14.109Z,16.90
2019-02-20T11:23:14.096Z,19.00
2019-02-20T11:24:14.091Z,18.70
2019-02-20T11:25:14.071Z,18.70
2019-02-20T11:26:18.211Z,19.00
2019-02-20T11:27:14.053Z,19.10
2019-02-20T11:28:14.046Z,19.00
2019-02-20T11:29:14.034Z,18.90
2019-02-20T11:30:14.021Z,18.80
2019-02-20T11:31:14.025Z,18.90
2019-02-20T11:32:14.035Z,18.20
2019-02-20T11:33:13.988Z,19.40
2019-02-20T11:34:13.991Z,18.20
2019-02-20T11:35:13.996Z,18.90
2019-02-20T11:36:13.962Z,18.90
2019-02-20T11:37:13.938Z,18.90
2019-02-20T11:38:14.275Z,18.30
2019-02-20T11:39:13.930Z,18.50
2019-02-20T11:40:13.906Z,18.00
2019-02-20T11:41:13.911Z,17.60
2019-02-20T11:42:13.885Z,18.20
2019-02-20T11:43:13.874Z,15.70
2019-02-20T11:44:20.784Z,16.60
2019-02-20T11:45:14.867Z,15.20
2019-02-20T11:46:13.872Z,15.20
2019-02-20T11:47:13.841Z,15.80
2019-02-20T11:48:13.819Z,16.30
2019-02-20T11:49:13.813Z,16.40
2019-02-20T11:50:13.796Z,16.50
2019-02-20T11:51:13.813Z,16.30
2019-02-20T11:52:13.787Z,16.80
2019-02-20T11:53:13.813Z,17.00
2019-02-20T11:54:13.751Z,16.10
2019-02-20T11:55:13.752Z,15.60
2019-02-20T11:56:13.761Z,16.70
2019-02-20T11:57:14.010Z,16.20
2019-02-20T11:58:13.711Z,15.70
2019-02-20T11:59:13.705Z,16.50
2019-02-20T12:00:13.685Z,16.80
2019-02-20T12:01:13.679Z,15.70
2019-02-20T12:02:13.686Z,16.60
2019-02-20T12:03:13.658Z,16.90
2019-02-20T12:04:13.643Z,16.70
2019-02-20T12:05:13.631Z,15.80
2019-02-20T12:06:13.681Z,16.60
2019-02-20T12:07:13.616Z,16.90
2019-02-20T12:08:13.611Z,16.70
2019-02-20T12:09:13.587Z,16.20
2019-02-20T12:10:13.579Z,15.40
2019-02-20T12:11:13.578Z,15.90
2019-02-20T12:12:13.563Z,16.90
2019-02-20T12:13:13.543Z,16.80
2019-02-20T12:14:13.547Z,17.90
2019-02-20T12:15:13.519Z,17.30
2019-02-20T12:16:13.510Z,17.90
2019-02-20T12:17:13.514Z,17.10
2019-02-20T12:18:17.438Z,16.70
2019-02-20T12:19:13.493Z,16.50
2019-02-20T12:20:13.472Z,17.00
2019-02-20T12:21:13.451Z,16.90
2019-02-20T12:22:13.462Z,17.20
2019-02-20T12:23:13.441Z,16.70
2019-02-20T12:24:13.422Z,17.60
2019-02-20T12:25:13.413Z,17.70
2019-02-20T12:26:13.407Z,17.70
2019-02-20T12:27:13.417Z,16.60
2019-02-20T12:28:13.377Z,16.30
2019-02-20T12:29:13.371Z,16.70
2019-02-20T12:30:13.351Z,15.10
2019-02-20T12:31:13.342Z,14.30
2019-02-20T12:32:13.348Z,14.70
2019-02-20T12:33:13.322Z,14.40
2019-02-20T12:34:13.306Z,13.30
2019-02-20T12:35:13.299Z,14.10
2019-02-20T12:36:13.290Z,13.80
2019-02-20T12:37:13.295Z,12.70
2019-02-20T12:38:13.275Z,11.50
2019-02-20T12:39:13.257Z,12.70
2019-02-20T12:40:13.236Z,12.00
2019-02-20T12:41:13.242Z,12.00
2019-02-20T12:42:13.230Z,12.30
2019-02-20T12:43:13.218Z,12.40
2019-02-20T12:44:13.199Z,12.10
2019-02-20T12:45:13.188Z,12.00
2019-02-20T12:46:13.171Z,11.60
2019-02-20T12:47:13.162Z,12.00
2019-02-20T12:48:13.165Z,11.70
2019-02-20T12:49:13.147Z,12.00
2019-02-20T12:50:13.128Z,11.30
2019-02-20T12:51:13.121Z,11.50
2019-02-20T12:52:13.109Z,11.10
2019-02-20T12:53:13.112Z,11.20
2019-02-20T12:54:13.095Z,10.90
2019-02-20T12:55:13.078Z,10.80
2019-02-20T12:56:13.072Z,10.40
2019-02-20T12:57:13.051Z,10.40
2019-02-20T12:58:13.051Z,10.20
2019-02-20T12:59:13.038Z,10.70
2019-02-20T13:00:13.018Z,10.10
2019-02-20T13:01:13.008Z,10.10
2019-02-20T13:02:12.994Z,9.80
2019-02-20T13:03:13.001Z,10.10
2019-02-20T13:04:12.976Z,9.60
2019-02-20T13:05:12.962Z,9.80
2019-02-20T13:06:12.948Z,9.80
2019-02-20T13:07:12.945Z,10.10
2019-02-20T13:08:12.993Z,10.20
2019-02-20T13:09:12.917Z,10.20
2019-02-20T13:10:12.906Z,9.20
2019-02-20T13:11:14.492Z,9.00
2019-02-20T13:12:12.889Z,9.30
2019-02-20T13:13:12.907Z,9.50
2019-02-20T13:14:12.860Z,10.20
2019-02-20T13:15:12.867Z,11.60
2019-02-20T13:16:12.838Z,9.30
2019-02-20T13:17:12.846Z,9.50
2019-02-20T13:18:12.849Z,9.20
2019-02-20T13:19:12.808Z,8.60
2019-02-20T13:20:12.799Z,7.20
2019-02-20T13:21:12.785Z,7.20
2019-02-20T13:22:12.774Z,7.20
2019-02-20T13:23:12.823Z,7.80
2019-02-20T13:24:12.754Z,7.30
2019-02-20T13:25:12.740Z,7.20
2019-02-20T13:26:12.731Z,7.30
2019-02-20T13:27:12.732Z,7.10
2019-02-20T13:28:12.707Z,7.50
2019-02-20T13:29:12.745Z,7.10
2019-02-20T13:30:12.698Z,6.80
2019-02-20T13:31:12.677Z,7.40
2019-02-20T13:32:12.697Z,7.30
2019-02-20T13:33:12.650Z,6.90
2019-02-20T13:34:12.653Z,6.80
2019-02-20T13:35:12.631Z,7.00
2019-02-20T13:36:12.616Z,6.90
2019-02-20T13:37:12.633Z,7.10
2019-02-20T13:38:12.592Z,6.70
2019-02-20T13:39:12.608Z,6.60
2019-02-20T13:40:12.575Z,6.80
2019-02-20T13:41:12.672Z,6.90
2019-02-20T13:42:12.557Z,6.90
2019-02-20T13:43:12.543Z,7.20
2019-02-20T13:44:13.043Z,7.40
2019-02-20T13:45:12.520Z,8.70
2019-02-20T13:46:12.508Z,8.80
2019-02-20T13:47:12.500Z,8.30
2019-02-20T13:48:12.482Z,8.60
2019-02-20T13:49:12.493Z,9.50
2019-02-20T13:50:13.226Z,9.50
2019-02-20T13:51:12.449Z,9.40
2019-02-20T13:52:12.441Z,9.10
2019-02-20T13:53:14.194Z,8.60
2019-02-20T13:54:12.447Z,9.10
2019-02-20T13:55:12.408Z,9.90
2019-02-20T13:56:12.403Z,9.50
2019-02-20T13:57:12.380Z,9.50
2019-02-20T13:58:12.368Z,8.70
2019-02-20T13:59:12.375Z,10.00
2019-02-20T14:00:13.312Z,9.10
2019-02-20T14:01:12.337Z,10.00
2019-02-20T14:02:12.323Z,10.00
2019-02-20T14:03:13.210Z,9.80
2019-02-20T14:04:12.324Z,9.90
2019-02-20T14:05:12.293Z,10.30
2019-02-20T14:06:12.297Z,10.00
2019-02-20T14:07:12.280Z,9.90
2019-02-20T14:08:12.257Z,9.90
2019-02-20T14:09:12.258Z,10.30
2019-02-20T14:10:12.262Z,9.90
2019-02-20T14:11:12.225Z,10.00
2019-02-20T14:12:12.213Z,10.50
2019-02-20T14:13:12.210Z,10.40
2019-02-20T14:14:12.206Z,10.00
2019-02-20T14:15:12.182Z,10.10
2019-02-20T14:16:12.171Z,10.10
2019-02-20T14:17:12.162Z,10.10
2019-02-20T14:18:12.149Z,10.00
2019-02-20T14:19:12.157Z,9.70
2019-02-20T14:20:12.134Z,9.40
2019-02-20T14:21:12.114Z,10.30
2019-02-20T14:22:12.101Z,9.50
2019-02-20T14:23:12.091Z,9.30
2019-02-20T14:24:12.081Z,9.60
2019-02-20T14:25:12.097Z,9.70
2019-02-20T14:26:12.067Z,9.40
2019-02-20T14:27:12.068Z,9.50
2019-02-20T14:28:12.036Z,9.60
2019-02-20T14:29:12.043Z,9.10
2019-02-20T14:30:12.026Z,10.30
2019-02-20T14:31:12.001Z,10.50
2019-02-20T14:32:11.990Z,9.90
2019-02-20T14:33:11.996Z,10.60
2019-02-20T14:34:11.972Z,10.20
2019-02-20T14:35:11.977Z,10.40
2019-02-20T14:36:11.968Z,10.40
2019-02-20T14:37:11.934Z,10.20
2019-02-20T14:38:11.929Z,10.60
2019-02-20T14:39:11.920Z,10.70
2019-02-20T14:40:11.923Z,10.50
2019-02-20T14:41:11.892Z,10.90
2019-02-20T14:42:11.887Z,10.70
2019-02-20T14:43:11.872Z,11.10